KOVE

Oroville Municipal Airport

Oroville, California, USA
METAR KOVE 231053Z AUTO 13006KT 10SM CLR 14/12 A2985 RMK AO2 SLP110 T01440117
Observed Flight Rules
May-23 @ 10:53 UTC (13 minutes ago) Visual Flight Rules
Wind Visibility Clouds
130° at 6 knots 10 miles
  • Clear skies
Temperatures Readings
Current 14°C / 57°F
Dewpoint 12°C / 54°F
Humidity 88%
Altimeter 29.85" Hg
Pressure 1011 hPa
Elevation 58
METAR KOVE 231053Z AUTO 13006KT 10SM CLR 14/12 A2985 RMK AO2 SLP110 T01440117
Observed Flight Rules
May-23 @ 10:53 UTC
(13 minutes ago)
VFR
Wind Visibility
130° at 6 knots 10 miles
Clouds
  • Clear skies
Temperature Dewpoint
14°C / 57°F 12°C / 54°F
Humidity Altimeter Pressure
88% 29.85" Hg 1011 hPa